Naukati Bay, Alaska
Current Conditions -  °F | °C
As of 7:53 PM on Friday 19 Dec 2014 (Local Time) from PAKT Reporting Station
Light Rain Light Rain  
Wind Chill: 35°   Ceiling: 2900
Heat Index: 44°   Visibility: 10mi
Dew Point: 38°   Wind: 26mph
Humidity: 79%   Direction: 140°SE
Pressure: 29.27"   Gusts: 35mph
Location:  55.5909°N, 131.349°W
Report Text: PAKT 200453Z 14023G30KT 10SM -RA FEW018 FEW024 OVC029 07/03 A2927 RMK AO2 PK WND 13030/0356 SLP912 P0004 T00670033
Loading
Personal Weather Stations






























Interactive Weather Map New forecast layout! Learn more

10-Day Weather Forecast

Advertisements
Track Severe Weather on mobile